createdAt,value
2019-04-11T00:00:52.469Z,4.80
2019-04-11T00:03:31.946Z,4.70
2019-04-11T00:06:12.031Z,4.70
2019-04-11T00:08:52.380Z,4.60
2019-04-11T00:11:33.530Z,4.60
2019-04-11T00:14:13.916Z,4.60
2019-04-11T00:16:53.437Z,4.60
2019-04-11T00:19:33.689Z,4.60
2019-04-11T00:22:13.253Z,4.50
2019-04-11T00:24:53.433Z,4.50
2019-04-11T00:27:35.041Z,4.40
2019-04-11T00:32:56.073Z,4.30
2019-04-11T00:35:36.816Z,4.30
2019-04-11T00:38:17.837Z,4.30
2019-04-11T00:40:59.620Z,4.20
2019-04-11T00:43:42.126Z,4.20
2019-04-11T00:46:22.372Z,4.10
2019-04-11T00:49:02.519Z,4.00
2019-04-11T00:51:42.877Z,3.90
2019-04-11T00:54:22.819Z,3.90
2019-04-11T00:57:03.034Z,3.80
2019-04-11T00:59:43.196Z,3.80
2019-04-11T01:02:25.165Z,3.80
2019-04-11T01:05:05.888Z,3.80
2019-04-11T01:07:45.554Z,3.80
2019-04-11T01:10:26.549Z,3.80
2019-04-11T01:13:07.130Z,3.70
2019-04-11T01:19:02.571Z,3.70
2019-04-11T01:21:43.017Z,3.60
2019-04-11T01:24:23.855Z,3.50
2019-04-11T01:27:03.741Z,3.50
2019-04-11T01:29:44.054Z,3.50
2019-04-11T01:32:24.458Z,3.40
2019-04-11T01:35:04.781Z,3.40
2019-04-11T01:37:46.044Z,3.40
2019-04-11T01:40:26.309Z,3.40
2019-04-11T01:43:06.439Z,3.30
2019-04-11T01:45:46.545Z,3.30
2019-04-11T01:48:31.605Z,3.20
2019-04-11T01:51:13.718Z,3.20
2019-04-11T01:53:53.651Z,3.20
2019-04-11T01:56:33.983Z,3.10
2019-04-11T01:59:15.250Z,3.10
2019-04-11T02:02:03.304Z,3.10
2019-04-11T02:07:51.070Z,3.00
2019-04-11T02:10:30.911Z,3.00
2019-04-11T02:13:11.975Z,3.00
2019-04-11T02:15:56.738Z,2.90
2019-04-11T02:18:23.548Z,2.90
2019-04-11T02:21:11.562Z,2.90
2019-04-11T02:27:21.205Z,2.90
2019-04-11T02:30:01.263Z,2.80
2019-04-11T02:35:28.794Z,2.70
2019-04-11T02:38:09.802Z,2.70
2019-04-11T02:40:50.034Z,2.70
2019-04-11T02:43:32.008Z,2.70
2019-04-11T02:46:21.997Z,2.60
2019-04-11T02:48:54.535Z,2.60
2019-04-11T02:51:36.904Z,2.60
2019-04-11T02:54:18.178Z,2.50
2019-04-11T02:57:01.659Z,2.50
2019-04-11T02:59:44.479Z,2.50
2019-04-11T03:02:24.310Z,2.50
2019-04-11T03:05:06.943Z,2.50
2019-04-11T03:07:47.705Z,2.40
2019-04-11T03:10:28.903Z,2.30
2019-04-11T03:13:10.364Z,2.30
2019-04-11T03:16:07.183Z,2.30
2019-04-11T03:18:46.092Z,2.30
2019-04-11T03:21:20.343Z,2.30
2019-04-11T03:23:58.637Z,2.30
2019-04-11T03:26:41.080Z,2.30
2019-04-11T03:29:20.996Z,2.30
2019-04-11T03:35:51.838Z,2.30
2019-04-11T03:37:49.875Z,2.30
2019-04-11T03:40:27.207Z,2.30
2019-04-11T03:43:03.690Z,2.20
2019-04-11T03:45:48.026Z,2.20
2019-04-11T03:48:29.220Z,2.20
2019-04-11T03:50:57.601Z,2.20
2019-04-11T03:53:38.710Z,2.20
2019-04-11T03:56:21.800Z,2.20
2019-04-11T03:59:01.419Z,2.20
2019-04-11T04:01:39.961Z,2.10
2019-04-11T04:04:28.911Z,2.10
2019-04-11T04:07:16.676Z,2.10
2019-04-11T04:09:56.289Z,2.10
2019-04-11T04:12:37.704Z,2.10
2019-04-11T04:15:51.582Z,2.10
2019-04-11T04:25:16.678Z,2.00
2019-04-11T04:27:56.995Z,2.00
2019-04-11T04:30:40.566Z,1.90
2019-04-11T04:33:22.785Z,2.00
2019-04-11T04:36:06.057Z,2.00
2019-04-11T04:38:46.363Z,2.00
2019-04-11T04:41:36.669Z,2.00
2019-04-11T04:44:08.703Z,2.00
2019-04-11T04:47:00.283Z,1.90
2019-04-11T04:49:32.348Z,1.90
2019-04-11T04:52:14.404Z,2.00
2019-04-11T04:54:55.147Z,2.00
2019-04-11T04:57:37.649Z,2.00
2019-04-11T05:00:16.070Z,2.00
2019-04-11T05:03:02.959Z,2.00
2019-04-11T05:05:44.304Z,2.10
2019-04-11T05:08:24.978Z,2.10
2019-04-11T05:11:05.467Z,2.10
2019-04-11T05:13:48.528Z,2.20
2019-04-11T05:16:27.212Z,2.20
2019-04-11T05:19:08.458Z,2.30
2019-04-11T05:21:48.481Z,2.40
2019-04-11T05:24:28.767Z,2.40
2019-04-11T05:27:08.354Z,2.50
2019-04-11T05:29:49.461Z,2.50
2019-04-11T05:32:29.605Z,2.60
2019-04-11T05:35:11.057Z,2.70
2019-04-11T05:37:51.475Z,2.70
2019-04-11T05:40:32.497Z,2.80
2019-04-11T05:43:13.555Z,2.90
2019-04-11T05:45:55.214Z,3.10
2019-04-11T05:48:50.629Z,3.30
2019-04-11T05:54:12.250Z,3.80
2019-04-11T05:56:59.188Z,3.90
2019-04-11T06:00:00.144Z,4.10
2019-04-11T06:02:43.740Z,4.20
2019-04-11T06:05:50.029Z,4.40
2019-04-11T06:08:31.800Z,4.70
2019-04-11T06:11:20.699Z,4.90
2019-04-11T06:14:17.824Z,5.10
2019-04-11T06:17:01.008Z,5.40
2019-04-11T06:20:00.279Z,5.70
2019-04-11T06:22:45.635Z,5.80
2019-04-11T06:28:09.574Z,6.10
2019-04-11T06:31:12.039Z,6.30
2019-04-11T06:33:56.617Z,6.40
2019-04-11T06:36:56.913Z,6.50
2019-04-11T06:39:47.758Z,6.70
2019-04-11T06:42:45.613Z,6.90
2019-04-11T06:45:46.136Z,7.20
2019-04-11T06:51:30.581Z,7.60
2019-04-11T06:54:30.744Z,7.70
2019-04-11T06:57:14.669Z,7.90
2019-04-11T06:59:54.588Z,8.10
2019-04-11T07:02:37.536Z,8.30
2019-04-11T07:05:18.297Z,8.50
2019-04-11T07:07:58.131Z,8.70
2019-04-11T07:10:42.569Z,8.60
2019-04-11T07:13:30.543Z,9.00
2019-04-11T07:16:11.233Z,9.20
2019-04-11T07:19:11.394Z,9.50
2019-04-11T07:22:32.669Z,9.60
2019-04-11T07:25:31.377Z,9.50
2019-04-11T07:28:22.951Z,9.90
2019-04-11T07:31:44.203Z,10.20
2019-04-11T07:34:43.731Z,9.90
2019-04-11T07:37:44.427Z,10.20
2019-04-11T07:40:44.407Z,10.30
2019-04-11T07:43:27.367Z,10.60
2019-04-11T07:49:34.951Z,10.30
2019-04-11T07:52:15.549Z,10.40
2019-04-11T07:54:56.486Z,10.10
2019-04-11T07:57:42.600Z,10.20
2019-04-11T08:04:03.843Z,10.40
2019-04-11T08:07:04.340Z,11.10
2019-04-11T08:13:03.767Z,11.80
2019-04-11T08:16:04.394Z,11.80
2019-04-11T08:19:03.877Z,12.10
2019-04-11T08:22:03.224Z,12.60
2019-04-11T08:28:02.346Z,12.00
2019-04-11T08:33:20.397Z,12.50
2019-04-11T08:36:20.191Z,12.90
2019-04-11T08:39:01.804Z,13.00
2019-04-11T08:45:04.229Z,13.90
2019-04-11T08:47:53.945Z,14.10
2019-04-11T08:50:54.638Z,14.50
2019-04-11T08:53:44.977Z,14.50
2019-04-11T08:56:47.373Z,15.20
2019-04-11T08:59:46.893Z,15.00
2019-04-11T09:02:46.084Z,15.50
2019-04-11T09:05:35.426Z,15.60
2019-04-11T09:08:46.843Z,15.40
2019-04-11T09:11:47.052Z,15.70
2019-04-11T09:14:46.492Z,15.90
2019-04-11T09:21:20.511Z,15.40
2019-04-11T09:24:01.906Z,16.50
2019-04-11T09:27:02.421Z,17.00
2019-04-11T09:29:46.273Z,17.00
2019-04-11T09:32:46.514Z,17.00
2019-04-11T09:35:29.097Z,17.30
2019-04-11T09:38:10.456Z,18.10
2019-04-11T09:41:00.569Z,18.00
2019-04-11T09:43:40.589Z,18.60
2019-04-11T09:46:34.459Z,18.70
2019-04-11T09:49:31.308Z,18.20
2019-04-11T09:52:16.771Z,18.40
2019-04-11T09:58:33.714Z,18.20
2019-04-11T10:01:33.078Z,17.60
2019-04-11T10:04:13.208Z,18.10
2019-04-11T10:07:13.214Z,18.50
2019-04-11T10:10:12.857Z,19.50
2019-04-11T10:19:20.047Z,19.30
2019-04-11T10:22:20.610Z,19.50
2019-04-11T10:25:31.675Z,20.30
2019-04-11T10:28:31.496Z,20.60
2019-04-11T10:31:18.106Z,21.10
2019-04-11T10:34:31.553Z,21.70
2019-04-11T10:37:14.239Z,22.10
2019-04-11T10:40:03.925Z,20.60
2019-04-11T10:43:04.461Z,21.20
2019-04-11T10:45:57.065Z,21.00
2019-04-11T10:48:50.021Z,20.60
2019-04-11T10:51:56.482Z,21.30
2019-04-11T10:54:36.775Z,21.60
2019-04-11T10:57:36.249Z,21.80
2019-04-11T11:00:35.605Z,21.20
2019-04-11T11:03:47.382Z,21.80
2019-04-11T11:06:29.558Z,22.00
2019-04-11T11:09:28.739Z,22.40
2019-04-11T11:15:31.545Z,21.80
2019-04-11T11:18:48.163Z,22.30
2019-04-11T11:21:17.634Z,22.60
2019-04-11T11:24:17.729Z,22.30
2019-04-11T11:26:58.325Z,21.70
2019-04-11T11:30:06.094Z,21.70
2019-04-11T11:32:47.414Z,22.00
2019-04-11T11:35:54.059Z,22.80
2019-04-11T11:42:33.114Z,21.80
2019-04-11T11:45:35.418Z,22.20
2019-04-11T11:52:11.297Z,22.90
2019-04-11T11:54:56.352Z,22.70
2019-04-11T11:57:55.863Z,22.90
2019-04-11T12:00:36.742Z,22.00
2019-04-11T12:03:35.829Z,22.40
2019-04-11T12:06:20.775Z,22.20
2019-04-11T12:09:18.378Z,22.20
2019-04-11T12:12:04.348Z,22.90
2019-04-11T12:15:03.476Z,23.70
2019-04-11T12:18:24.797Z,23.30
2019-04-11T12:21:07.181Z,23.50
2019-04-11T12:24:09.741Z,23.20
2019-04-11T12:27:22.599Z,24.20
2019-04-11T12:30:25.807Z,23.80
2019-04-11T12:33:25.690Z,23.10
2019-04-11T12:36:08.013Z,23.20
2019-04-11T12:39:07.040Z,23.10
2019-04-11T12:41:52.400Z,22.70
2019-04-11T12:44:41.350Z,23.70
2019-04-11T12:47:25.708Z,23.20
2019-04-11T12:50:28.476Z,24.50
2019-04-11T12:53:16.157Z,24.50
2019-04-11T12:55:56.292Z,23.90
2019-04-11T12:58:47.772Z,23.60
2019-04-11T13:01:47.350Z,24.00
2019-04-11T13:04:46.443Z,24.40
2019-04-11T13:10:40.739Z,24.60
2019-04-11T13:16:30.362Z,24.80
2019-04-11T13:19:30.057Z,23.50
2019-04-11T13:22:15.817Z,24.60
2019-04-11T13:25:14.892Z,23.80
2019-04-11T13:27:56.565Z,24.10
2019-04-11T13:30:57.710Z,25.00
2019-04-11T13:33:38.082Z,25.10
2019-04-11T13:36:37.074Z,25.30
2019-04-11T13:39:16.731Z,25.50
2019-04-11T13:42:16.278Z,23.60
2019-04-11T13:44:55.788Z,22.40
2019-04-11T13:48:02.016Z,21.80
2019-04-11T13:50:41.785Z,21.70
2019-04-11T13:53:43.914Z,20.90
2019-04-11T13:59:56.658Z,22.20
2019-04-11T14:02:52.245Z,21.70
2019-04-11T14:05:30.755Z,22.40
2019-04-11T14:11:29.159Z,24.00
2019-04-11T14:14:29.743Z,23.70
2019-04-11T14:17:34.740Z,23.30
2019-04-11T14:20:34.233Z,21.60
2019-04-11T14:23:15.313Z,21.70
2019-04-11T14:26:00.332Z,22.00
2019-04-11T14:28:59.684Z,22.80
2019-04-11T14:31:47.600Z,23.50
2019-04-11T14:34:52.931Z,22.90
2019-04-11T14:37:39.476Z,21.00
2019-04-11T14:40:41.565Z,20.90
2019-04-11T14:43:25.476Z,21.00
2019-04-11T14:46:25.233Z,20.40
2019-04-11T14:49:05.863Z,20.60
2019-04-11T14:52:03.625Z,20.00
2019-04-11T14:58:11.896Z,19.20
2019-04-11T15:00:53.788Z,19.50
2019-04-11T15:03:44.976Z,19.70
2019-04-11T15:12:52.382Z,20.20
2019-04-11T15:19:02.952Z,18.80
2019-04-11T15:22:04.049Z,19.30
2019-04-11T15:24:46.532Z,19.20
2019-04-11T15:27:49.745Z,18.70
2019-04-11T15:30:30.818Z,18.80
2019-04-11T15:33:29.909Z,18.70
2019-04-11T15:36:11.128Z,18.90
2019-04-11T15:39:10.599Z,19.00
2019-04-11T15:41:53.728Z,19.30
2019-04-11T15:44:51.737Z,19.00
2019-04-11T15:47:31.381Z,18.90
2019-04-11T15:50:31.282Z,18.70
2019-04-11T15:53:14.520Z,17.80
2019-04-11T15:56:13.771Z,17.60
2019-04-11T15:58:59.236Z,17.60
2019-04-11T16:02:00.936Z,17.90
2019-04-11T16:04:54.059Z,17.70
2019-04-11T16:07:56.250Z,17.40
2019-04-11T16:10:41.835Z,17.10
2019-04-11T16:13:31.817Z,16.40
2019-04-11T16:16:14.837Z,16.60
2019-04-11T16:19:16.909Z,16.20
2019-04-11T16:22:19.766Z,15.60
2019-04-11T16:25:02.018Z,15.30
2019-04-11T16:28:02.011Z,15.30
2019-04-11T16:34:03.284Z,15.40
2019-04-11T16:36:51.593Z,15.10
2019-04-11T16:39:57.747Z,14.50
2019-04-11T16:46:27.404Z,14.50
2019-04-11T16:49:06.841Z,14.70
2019-04-11T16:51:46.925Z,14.50
2019-04-11T16:54:27.387Z,14.10
2019-04-11T16:57:07.277Z,13.90
2019-04-11T16:59:49.578Z,13.60
2019-04-11T17:02:31.825Z,13.20
2019-04-11T17:05:12.577Z,12.70
2019-04-11T17:07:59.217Z,12.30
2019-04-11T17:10:58.376Z,11.90
2019-04-11T17:13:45.159Z,11.60
2019-04-11T17:16:29.954Z,11.60
2019-04-11T17:19:06.880Z,11.40
2019-04-11T17:21:48.949Z,11.00
2019-04-11T17:24:29.230Z,10.60
2019-04-11T17:27:10.729Z,10.50
2019-04-11T17:29:54.573Z,10.20
2019-04-11T17:32:36.205Z,10.10
2019-04-11T17:35:15.864Z,10.00
2019-04-11T17:37:55.973Z,9.80
2019-04-11T17:40:39.383Z,9.70
2019-04-11T17:43:18.081Z,9.60
2019-04-11T17:48:42.106Z,9.40
2019-04-11T17:51:24.185Z,9.30
2019-04-11T17:54:04.461Z,9.20
2019-04-11T17:56:44.385Z,9.00
2019-04-11T17:59:27.991Z,9.00
2019-04-11T18:02:10.350Z,8.90
2019-04-11T18:04:50.141Z,8.80
2019-04-11T18:07:30.896Z,8.80
2019-04-11T18:10:10.286Z,8.70
2019-04-11T18:15:36.828Z,8.50
2019-04-11T18:18:16.630Z,8.40
2019-04-11T18:20:56.721Z,8.30
2019-04-11T18:23:43.569Z,8.20
2019-04-11T18:26:23.156Z,8.20
2019-04-11T18:29:03.336Z,8.10
2019-04-11T18:31:43.104Z,8.00
2019-04-11T18:34:23.728Z,8.00
2019-04-11T18:37:04.280Z,7.90
2019-04-11T18:39:44.685Z,7.90
2019-04-11T18:42:24.754Z,7.80
2019-04-11T18:45:04.389Z,7.60
2019-04-11T18:50:40.571Z,7.50
2019-04-11T18:53:20.619Z,7.40
2019-04-11T18:56:01.767Z,7.40
2019-04-11T18:58:41.823Z,7.40
2019-04-11T19:01:21.852Z,7.30
2019-04-11T19:04:02.219Z,7.30
2019-04-11T19:06:43.013Z,7.20
2019-04-11T19:09:23.710Z,7.10
2019-04-11T19:12:05.452Z,7.10
2019-04-11T19:14:46.102Z,7.10
2019-04-11T19:20:18.681Z,7.00
2019-04-11T19:22:58.968Z,7.00
2019-04-11T19:25:44.063Z,6.90
2019-04-11T19:28:24.891Z,6.80
2019-04-11T19:31:03.828Z,6.70
2019-04-11T19:33:43.687Z,6.70
2019-04-11T19:36:23.956Z,6.70
2019-04-11T19:39:04.923Z,6.70
2019-04-11T19:41:47.852Z,6.60
2019-04-11T19:44:27.806Z,6.50
2019-04-11T19:47:07.691Z,6.50
2019-04-11T19:49:47.773Z,6.40
2019-04-11T19:52:29.863Z,6.30
2019-04-11T19:55:29.742Z,6.20
2019-04-11T19:58:09.125Z,6.20
2019-04-11T20:00:53.066Z,6.10
2019-04-11T20:03:31.632Z,6.00
2019-04-11T20:06:17.961Z,6.00
2019-04-11T20:09:04.797Z,6.00
2019-04-11T20:11:46.564Z,5.90
2019-04-11T20:14:27.059Z,5.80
2019-04-11T20:17:09.211Z,5.80
2019-04-11T20:20:00.625Z,5.70
2019-04-11T20:22:31.128Z,5.70
2019-04-11T20:25:11.426Z,5.70
2019-04-11T20:27:51.377Z,5.60
2019-04-11T20:30:31.806Z,5.50
2019-04-11T20:33:11.260Z,5.50
2019-04-11T20:35:50.957Z,5.50
2019-04-11T20:38:30.815Z,5.40
2019-04-11T20:41:14.325Z,5.30
2019-04-11T20:43:57.003Z,5.30
2019-04-11T20:46:36.235Z,5.30
2019-04-11T20:49:16.172Z,5.20
2019-04-11T20:51:56.498Z,5.20
2019-04-11T20:54:38.518Z,5.10
2019-04-11T20:57:25.700Z,5.10
2019-04-11T21:00:00.617Z,5.10
2019-04-11T21:02:41.088Z,5.00
2019-04-11T21:05:21.089Z,4.90
2019-04-11T21:08:02.987Z,4.90
2019-04-11T21:10:43.389Z,4.90
2019-04-11T21:13:23.648Z,4.80
2019-04-11T21:16:03.794Z,4.80
2019-04-11T21:18:44.487Z,4.70
2019-04-11T21:21:25.168Z,4.70
2019-04-11T21:24:05.439Z,4.60
2019-04-11T21:26:45.674Z,4.60
2019-04-11T21:29:25.723Z,4.50
2019-04-11T21:32:05.682Z,4.50
2019-04-11T21:34:47.643Z,4.40
2019-04-11T21:37:30.172Z,4.30
2019-04-11T21:40:09.703Z,4.30
2019-04-11T21:42:50.136Z,4.20
2019-04-11T21:45:29.708Z,4.20
2019-04-11T21:48:10.086Z,4.20
2019-04-11T21:50:49.914Z,4.10
2019-04-11T21:53:36.537Z,4.10
2019-04-11T21:56:10.044Z,4.00
2019-04-11T21:58:56.809Z,4.00
2019-04-11T22:01:36.478Z,4.00
2019-04-11T22:04:16.439Z,4.00
2019-04-11T22:07:00.730Z,3.90
2019-04-11T22:09:38.678Z,3.90
2019-04-11T22:12:18.868Z,3.90
2019-04-11T22:14:58.765Z,3.80
2019-04-11T22:17:38.670Z,3.70
2019-04-11T22:20:18.449Z,3.70
2019-04-11T22:22:58.470Z,3.60
2019-04-11T22:25:38.911Z,3.60
2019-04-11T22:28:19.360Z,3.60
2019-04-11T22:30:58.936Z,3.50
2019-04-11T22:34:01.190Z,3.40
2019-04-11T22:36:41.917Z,3.40
2019-04-11T22:39:22.815Z,3.40
2019-04-11T22:44:42.542Z,3.30
2019-04-11T22:47:24.507Z,3.30
2019-04-11T22:50:04.475Z,3.20
2019-04-11T22:52:44.702Z,3.20
2019-04-11T22:55:24.610Z,3.20
2019-04-11T22:58:04.678Z,3.10
2019-04-11T23:00:45.829Z,3.10
2019-04-11T23:03:32.630Z,3.10
2019-04-11T23:06:14.913Z,3.00
2019-04-11T23:08:54.767Z,3.00
2019-04-11T23:11:35.025Z,2.90
2019-04-11T23:14:15.967Z,2.90
2019-04-11T23:16:56.871Z,2.90
2019-04-11T23:19:36.860Z,2.80
2019-04-11T23:22:17.266Z,2.70
2019-04-11T23:24:57.421Z,2.70
2019-04-11T23:27:37.415Z,2.70
2019-04-11T23:30:18.420Z,2.70
2019-04-11T23:32:58.814Z,2.60
2019-04-11T23:35:38.558Z,2.60
2019-04-11T23:38:18.069Z,2.60
2019-04-11T23:40:58.224Z,2.50
2019-04-11T23:43:38.462Z,2.50
2019-04-11T23:46:19.015Z,2.50
2019-04-11T23:49:00.298Z,2.50
2019-04-11T23:51:40.383Z,2.50
2019-04-11T23:54:23.209Z,2.50
2019-04-11T23:57:02.756Z,2.40
2019-04-11T23:59:31.988Z,2.40
